sensor_id;sensor_type;location;lat;lon;timestamp;temperature;humidity
67064;SHT30;58476;48.072;11.970;2022-10-19T00:01:31;23.39;60.39
67064;SHT30;58476;48.072;11.970;2022-10-19T00:03:57;23.36;60.28
67064;SHT30;58476;48.072;11.970;2022-10-19T00:06:24;23.38;60.32
67064;SHT30;58476;48.072;11.970;2022-10-19T00:08:54;23.35;60.40
67064;SHT30;58476;48.072;11.970;2022-10-19T00:11:20;23.33;60.54
67064;SHT30;58476;48.072;11.970;2022-10-19T00:13:46;23.32;60.58
67064;SHT30;58476;48.072;11.970;2022-10-19T00:16:13;23.30;60.59
67064;SHT30;58476;48.072;11.970;2022-10-19T00:18:40;23.29;60.84
67064;SHT30;58476;48.072;11.970;2022-10-19T00:21:07;23.25;60.73
67064;SHT30;58476;48.072;11.970;2022-10-19T00:23:34;23.27;60.73
67064;SHT30;58476;48.072;11.970;2022-10-19T00:25:59;23.23;60.82
67064;SHT30;58476;48.072;11.970;2022-10-19T00:28:25;23.22;60.79
67064;SHT30;58476;48.072;11.970;2022-10-19T00:30:50;23.20;61.08
67064;SHT30;58476;48.072;11.970;2022-10-19T00:33:16;23.18;61.09
67064;SHT30;58476;48.072;11.970;2022-10-19T00:35:41;23.14;61.01
67064;SHT30;58476;48.072;11.970;2022-10-19T00:38:07;23.15;61.00
67064;SHT30;58476;48.072;11.970;2022-10-19T00:40:39;23.15;60.98
67064;SHT30;58476;48.072;11.970;2022-10-19T00:43:12;23.12;61.15
67064;SHT30;58476;48.072;11.970;2022-10-19T00:45:38;23.11;61.14
67064;SHT30;58476;48.072;11.970;2022-10-19T00:48:03;23.09;61.07
67064;SHT30;58476;48.072;11.970;2022-10-19T00:50:28;23.06;61.06
67064;SHT30;58476;48.072;11.970;2022-10-19T00:52:54;23.08;61.13
67064;SHT30;58476;48.072;11.970;2022-10-19T00:55:20;23.06;61.07
67064;SHT30;58476;48.072;11.970;2022-10-19T00:57:45;23.04;61.10
67064;SHT30;58476;48.072;11.970;2022-10-19T01:00:11;23.02;61.18
67064;SHT30;58476;48.072;11.970;2022-10-19T01:02:37;23.01;61.06
67064;SHT30;58476;48.072;11.970;2022-10-19T01:05:03;23.02;61.00
67064;SHT30;58476;48.072;11.970;2022-10-19T01:07:28;22.98;60.99
67064;SHT30;58476;48.072;11.970;2022-10-19T01:09:54;22.98;60.92
67064;SHT30;58476;48.072;11.970;2022-10-19T01:12:39;22.96;60.98
67064;SHT30;58476;48.072;11.970;2022-10-19T01:17:53;22.96;60.79
67064;SHT30;58476;48.072;11.970;2022-10-19T01:23:47;22.96;60.41
67064;SHT30;58476;48.072;11.970;2022-10-19T01:25:59;22.96;60.55
67064;SHT30;58476;48.072;11.970;2022-10-19T01:34:17;23.02;60.37
67064;SHT30;58476;48.072;11.970;2022-10-19T01:39:23;23.06;60.25
67064;SHT30;58476;48.072;11.970;2022-10-19T01:42:08;23.06;60.26
67064;SHT30;58476;48.072;11.970;2022-10-19T01:47:56;23.12;60.08
67064;SHT30;58476;48.072;11.970;2022-10-19T01:50:44;23.11;60.10
67064;SHT30;58476;48.072;11.970;2022-10-19T01:53:12;23.14;60.04
67064;SHT30;58476;48.072;11.970;2022-10-19T01:55:42;23.16;59.92
67064;SHT30;58476;48.072;11.970;2022-10-19T01:58:12;23.15;59.96
67064;SHT30;58476;48.072;11.970;2022-10-19T02:00:40;23.15;59.90
67064;SHT30;58476;48.072;11.970;2022-10-19T02:03:07;23.19;59.76
67064;SHT30;58476;48.072;11.970;2022-10-19T02:05:35;23.18;59.70
67064;SHT30;58476;48.072;11.970;2022-10-19T02:08:05;23.18;59.65
67064;SHT30;58476;48.072;11.970;2022-10-19T02:10:33;23.18;59.76
67064;SHT30;58476;48.072;11.970;2022-10-19T02:13:02;23.16;59.82
67064;SHT30;58476;48.072;11.970;2022-10-19T02:15:29;23.14;59.99
67064;SHT30;58476;48.072;11.970;2022-10-19T02:17:57;23.08;60.02
67064;SHT30;58476;48.072;11.970;2022-10-19T02:20:25;23.11;60.08
67064;SHT30;58476;48.072;11.970;2022-10-19T02:22:51;23.09;60.28
67064;SHT30;58476;48.072;11.970;2022-10-19T02:25:17;23.06;60.44
67064;SHT30;58476;48.072;11.970;2022-10-19T02:27:42;23.02;60.49
67064;SHT30;58476;48.072;11.970;2022-10-19T02:30:10;23.05;60.51
67064;SHT30;58476;48.072;11.970;2022-10-19T02:32:36;23.02;60.53
67064;SHT30;58476;48.072;11.970;2022-10-19T02:35:02;23.01;60.42
67064;SHT30;58476;48.072;11.970;2022-10-19T02:37:28;22.96;60.63
67064;SHT30;58476;48.072;11.970;2022-10-19T02:39:53;22.96;60.53
67064;SHT30;58476;48.072;11.970;2022-10-19T02:42:26;22.95;60.64
67064;SHT30;58476;48.072;11.970;2022-10-19T02:44:59;22.94;60.69
67064;SHT30;58476;48.072;11.970;2022-10-19T02:47:34;22.94;60.72
67064;SHT30;58476;48.072;11.970;2022-10-19T02:50:02;22.92;60.80
67064;SHT30;58476;48.072;11.970;2022-10-19T02:52:28;22.91;60.75
67064;SHT30;58476;48.072;11.970;2022-10-19T02:54:54;22.91;60.81
67064;SHT30;58476;48.072;11.970;2022-10-19T02:57:21;22.88;60.77
67064;SHT30;58476;48.072;11.970;2022-10-19T02:59:47;22.91;60.70
67064;SHT30;58476;48.072;11.970;2022-10-19T03:02:14;22.88;60.83
67064;SHT30;58476;48.072;11.970;2022-10-19T03:04:40;22.87;60.83
67064;SHT30;58476;48.072;11.970;2022-10-19T03:07:07;22.85;60.83
67064;SHT30;58476;48.072;11.970;2022-10-19T03:09:33;22.84;60.76
67064;SHT30;58476;48.072;11.970;2022-10-19T03:11:58;22.85;60.83
67064;SHT30;58476;48.072;11.970;2022-10-19T03:14:23;22.83;60.83
67064;SHT30;58476;48.072;11.970;2022-10-19T03:16:49;22.83;60.82
67064;SHT30;58476;48.072;11.970;2022-10-19T03:19:14;22.83;60.90
67064;SHT30;58476;48.072;11.970;2022-10-19T03:21:39;22.81;60.85
67064;SHT30;58476;48.072;11.970;2022-10-19T03:24:05;22.81;60.81
67064;SHT30;58476;48.072;11.970;2022-10-19T03:26:30;22.81;60.70
67064;SHT30;58476;48.072;11.970;2022-10-19T03:28:56;22.83;60.64
67064;SHT30;58476;48.072;11.970;2022-10-19T03:31:21;22.85;60.75
67064;SHT30;58476;48.072;11.970;2022-10-19T03:33:46;22.84;60.65
67064;SHT30;58476;48.072;11.970;2022-10-19T03:36:20;22.87;60.41
67064;SHT30;58476;48.072;11.970;2022-10-19T03:38:45;22.90;60.31
67064;SHT30;58476;48.072;11.970;2022-10-19T03:41:11;22.90;60.10
67064;SHT30;58476;48.072;11.970;2022-10-19T03:43:36;22.90;60.05
67064;SHT30;58476;48.072;11.970;2022-10-19T03:46:02;22.95;60.03
67064;SHT30;58476;48.072;11.970;2022-10-19T03:48:27;22.94;60.03
67064;SHT30;58476;48.072;11.970;2022-10-19T03:51:05;22.96;59.99
67064;SHT30;58476;48.072;11.970;2022-10-19T03:53:31;22.98;59.92
67064;SHT30;58476;48.072;11.970;2022-10-19T03:56:01;22.98;60.02
67064;SHT30;58476;48.072;11.970;2022-10-19T03:58:26;22.99;59.94
67064;SHT30;58476;48.072;11.970;2022-10-19T04:00:52;23.02;59.97
67064;SHT30;58476;48.072;11.970;2022-10-19T04:03:17;23.02;60.12
67064;SHT30;58476;48.072;11.970;2022-10-19T04:05:42;23.04;60.72
67064;SHT30;58476;48.072;11.970;2022-10-19T04:08:08;23.04;60.26
67064;SHT30;58476;48.072;11.970;2022-10-19T04:10:33;23.05;60.38
67064;SHT30;58476;48.072;11.970;2022-10-19T04:12:58;23.08;60.37
67064;SHT30;58476;48.072;11.970;2022-10-19T04:15:24;23.08;60.38
67064;SHT30;58476;48.072;11.970;2022-10-19T04:17:49;23.08;60.54
67064;SHT30;58476;48.072;11.970;2022-10-19T04:20:14;23.05;60.65
67064;SHT30;58476;48.072;11.970;2022-10-19T04:22:40;23.11;61.01
67064;SHT30;58476;48.072;11.970;2022-10-19T04:25:05;23.12;60.89
67064;SHT30;58476;48.072;11.970;2022-10-19T04:27:31;23.12;61.21
67064;SHT30;58476;48.072;11.970;2022-10-19T04:29:56;23.16;61.11
67064;SHT30;58476;48.072;11.970;2022-10-19T04:32:22;23.15;61.19
67064;SHT30;58476;48.072;11.970;2022-10-19T04:34:47;23.18;61.21
67064;SHT30;58476;48.072;11.970;2022-10-19T04:37:12;23.19;61.28
67064;SHT30;58476;48.072;11.970;2022-10-19T04:39:38;23.18;61.22
67064;SHT30;58476;48.072;11.970;2022-10-19T04:42:03;23.16;61.38
67064;SHT30;58476;48.072;11.970;2022-10-19T04:44:28;23.14;61.48
67064;SHT30;58476;48.072;11.970;2022-10-19T04:46:54;23.11;61.76
67064;SHT30;58476;48.072;11.970;2022-10-19T04:49:19;23.06;61.62
67064;SHT30;58476;48.072;11.970;2022-10-19T04:51:44;23.08;61.78
67064;SHT30;58476;48.072;11.970;2022-10-19T04:54:10;23.11;61.67
67064;SHT30;58476;48.072;11.970;2022-10-19T04:56:35;23.11;61.60
67064;SHT30;58476;48.072;11.970;2022-10-19T04:59:01;23.12;61.74
67064;SHT30;58476;48.072;11.970;2022-10-19T05:01:28;23.09;61.91
67064;SHT30;58476;48.072;11.970;2022-10-19T05:03:55;23.09;62.28
67064;SHT30;58476;48.072;11.970;2022-10-19T05:06:21;23.11;61.77
67064;SHT30;58476;48.072;11.970;2022-10-19T05:08:47;23.11;61.76
67064;SHT30;58476;48.072;11.970;2022-10-19T05:11:13;23.16;61.68
67064;SHT30;58476;48.072;11.970;2022-10-19T05:13:39;23.12;61.63
67064;SHT30;58476;48.072;11.970;2022-10-19T05:16:06;23.14;61.54
67064;SHT30;58476;48.072;11.970;2022-10-19T05:18:32;23.14;60.91
67064;SHT30;58476;48.072;11.970;2022-10-19T05:21:07;23.16;60.79
67064;SHT30;58476;48.072;11.970;2022-10-19T05:23:33;23.14;60.67
67064;SHT30;58476;48.072;11.970;2022-10-19T05:26:00;23.16;60.57
67064;SHT30;58476;48.072;11.970;2022-10-19T05:28:26;23.18;60.32
67064;SHT30;58476;48.072;11.970;2022-10-19T05:30:51;23.18;60.60
67064;SHT30;58476;48.072;11.970;2022-10-19T05:33:16;23.20;60.67
67064;SHT30;58476;48.072;11.970;2022-10-19T05:35:42;23.15;60.67
67064;SHT30;58476;48.072;11.970;2022-10-19T05:38:07;23.16;60.44
67064;SHT30;58476;48.072;11.970;2022-10-19T05:40:32;23.18;60.50
67064;SHT30;58476;48.072;11.970;2022-10-19T05:42:58;23.18;60.46
67064;SHT30;58476;48.072;11.970;2022-10-19T05:45:23;23.18;60.43
67064;SHT30;58476;48.072;11.970;2022-10-19T05:47:48;23.15;60.60
67064;SHT30;58476;48.072;11.970;2022-10-19T05:50:14;23.19;60.45
67064;SHT30;58476;48.072;11.970;2022-10-19T05:52:39;23.15;60.42
67064;SHT30;58476;48.072;11.970;2022-10-19T05:55:05;23.14;60.46
67064;SHT30;58476;48.072;11.970;2022-10-19T05:57:31;23.12;60.44
67064;SHT30;58476;48.072;11.970;2022-10-19T05:59:56;23.08;60.54
67064;SHT30;58476;48.072;11.970;2022-10-19T06:02:22;23.05;60.56
67064;SHT30;58476;48.072;11.970;2022-10-19T06:04:47;23.05;60.61
67064;SHT30;58476;48.072;11.970;2022-10-19T06:07:12;23.02;60.74
67064;SHT30;58476;48.072;11.970;2022-10-19T06:09:38;22.99;60.79
67064;SHT30;58476;48.072;11.970;2022-10-19T06:12:03;22.99;60.93
67064;SHT30;58476;48.072;11.970;2022-10-19T06:14:28;22.96;60.89
67064;SHT30;58476;48.072;11.970;2022-10-19T06:16:54;22.96;60.92
67064;SHT30;58476;48.072;11.970;2022-10-19T06:19:19;22.94;60.88
67064;SHT30;58476;48.072;11.970;2022-10-19T06:21:44;22.94;60.89
67064;SHT30;58476;48.072;11.970;2022-10-19T06:24:10;22.91;60.86
67064;SHT30;58476;48.072;11.970;2022-10-19T06:26:36;22.91;60.90
67064;SHT30;58476;48.072;11.970;2022-10-19T06:29:02;22.92;60.86
67064;SHT30;58476;48.072;11.970;2022-10-19T06:31:33;22.88;60.90
67064;SHT30;58476;48.072;11.970;2022-10-19T06:33:59;22.87;60.93
67064;SHT30;58476;48.072;11.970;2022-10-19T06:36:26;22.88;60.97
67064;SHT30;58476;48.072;11.970;2022-10-19T06:38:52;22.85;60.95
67064;SHT30;58476;48.072;11.970;2022-10-19T06:41:18;22.85;60.90
67064;SHT30;58476;48.072;11.970;2022-10-19T06:43:48;22.84;60.99
67064;SHT30;58476;48.072;11.970;2022-10-19T06:46:15;22.79;60.93
67064;SHT30;58476;48.072;11.970;2022-10-19T06:48:40;22.84;60.95
67064;SHT30;58476;48.072;11.970;2022-10-19T06:51:06;22.79;61.03
67064;SHT30;58476;48.072;11.970;2022-10-19T06:53:32;22.81;61.04
67064;SHT30;58476;48.072;11.970;2022-10-19T06:55:58;22.79;60.85
67064;SHT30;58476;48.072;11.970;2022-10-19T06:58:24;22.78;60.74
67064;SHT30;58476;48.072;11.970;2022-10-19T07:00:59;22.83;60.71
67064;SHT30;58476;48.072;11.970;2022-10-19T07:03:26;22.84;60.82
67064;SHT30;58476;48.072;11.970;2022-10-19T07:05:58;22.84;60.68
67064;SHT30;58476;48.072;11.970;2022-10-19T07:08:24;22.83;60.62
67064;SHT30;58476;48.072;11.970;2022-10-19T07:10:51;22.88;60.65
67064;SHT30;58476;48.072;11.970;2022-10-19T07:13:17;22.87;60.52
67064;SHT30;58476;48.072;11.970;2022-10-19T07:15:43;22.91;60.45
67064;SHT30;58476;48.072;11.970;2022-10-19T07:18:08;22.92;60.46
67064;SHT30;58476;48.072;11.970;2022-10-19T07:20:34;22.94;60.40
67064;SHT30;58476;48.072;11.970;2022-10-19T07:22:59;22.95;60.39
67064;SHT30;58476;48.072;11.970;2022-10-19T07:25:24;22.96;60.26
67064;SHT30;58476;48.072;11.970;2022-10-19T07:27:50;22.99;60.36
67064;SHT30;58476;48.072;11.970;2022-10-19T07:30:15;22.98;60.21
67064;SHT30;58476;48.072;11.970;2022-10-19T07:32:41;23.01;60.29
67064;SHT30;58476;48.072;11.970;2022-10-19T07:35:06;23.01;60.21
67064;SHT30;58476;48.072;11.970;2022-10-19T07:37:31;23.01;60.15
67064;SHT30;58476;48.072;11.970;2022-10-19T07:39:57;23.01;60.23
67064;SHT30;58476;48.072;11.970;2022-10-19T07:42:22;23.01;60.25
67064;SHT30;58476;48.072;11.970;2022-10-19T07:44:47;22.98;59.95
67064;SHT30;58476;48.072;11.970;2022-10-19T07:47:13;22.96;60.12
67064;SHT30;58476;48.072;11.970;2022-10-19T07:49:38;22.94;60.37
67064;SHT30;58476;48.072;11.970;2022-10-19T07:52:04;22.94;60.36
67064;SHT30;58476;48.072;11.970;2022-10-19T07:54:29;22.91;60.59
67064;SHT30;58476;48.072;11.970;2022-10-19T07:56:54;22.90;60.74
67064;SHT30;58476;48.072;11.970;2022-10-19T07:59:20;22.87;60.74
67064;SHT30;58476;48.072;11.970;2022-10-19T08:01:45;22.87;60.70
67064;SHT30;58476;48.072;11.970;2022-10-19T08:04:11;22.87;60.30
67064;SHT30;58476;48.072;11.970;2022-10-19T08:06:36;22.84;60.76
67064;SHT30;58476;48.072;11.970;2022-10-19T08:09:01;22.84;60.78
67064;SHT30;58476;48.072;11.970;2022-10-19T08:11:32;22.83;60.73
67064;SHT30;58476;48.072;11.970;2022-10-19T08:13:58;22.81;60.62
67064;SHT30;58476;48.072;11.970;2022-10-19T08:19:00;22.79;60.74
67064;SHT30;58476;48.072;11.970;2022-10-19T08:21:27;22.78;60.57
67064;SHT30;58476;48.072;11.970;2022-10-19T08:23:53;22.78;60.72
67064;SHT30;58476;48.072;11.970;2022-10-19T08:26:18;22.75;60.96
67064;SHT30;58476;48.072;11.970;2022-10-19T08:28:44;22.77;60.91
67064;SHT30;58476;48.072;11.970;2022-10-19T08:31:11;22.77;60.83
67064;SHT30;58476;48.072;11.970;2022-10-19T08:33:37;22.74;60.92
67064;SHT30;58476;48.072;11.970;2022-10-19T08:36:07;22.74;60.94
67064;SHT30;58476;48.072;11.970;2022-10-19T08:38:34;22.71;60.72
67064;SHT30;58476;48.072;11.970;2022-10-19T08:41:14;22.72;60.95
67064;SHT30;58476;48.072;11.970;2022-10-19T08:43:53;22.71;61.05
67064;SHT30;58476;48.072;11.970;2022-10-19T08:46:30;22.71;60.88
67064;SHT30;58476;48.072;11.970;2022-10-19T08:49:00;22.69;60.82
67064;SHT30;58476;48.072;11.970;2022-10-19T08:51:26;22.67;60.86
67064;SHT30;58476;48.072;11.970;2022-10-19T08:53:55;22.69;60.81
67064;SHT30;58476;48.072;11.970;2022-10-19T08:56:32;22.68;60.55
67064;SHT30;58476;48.072;11.970;2022-10-19T09:01:54;22.72;60.85
67064;SHT30;58476;48.072;11.970;2022-10-19T09:04:25;22.74;60.40
67064;SHT30;58476;48.072;11.970;2022-10-19T09:09:41;22.78;60.40
67064;SHT30;58476;48.072;11.970;2022-10-19T09:12:12;22.83;60.41
67064;SHT30;58476;48.072;11.970;2022-10-19T09:14:57;22.81;60.34
67064;SHT30;58476;48.072;11.970;2022-10-19T09:17:23;22.85;60.33
67064;SHT30;58476;48.072;11.970;2022-10-19T09:19:49;22.87;60.36
67064;SHT30;58476;48.072;11.970;2022-10-19T09:22:31;22.85;60.26
67064;SHT30;58476;48.072;11.970;2022-10-19T09:25:02;22.88;60.23
67064;SHT30;58476;48.072;11.970;2022-10-19T09:27:40;22.91;60.20
67064;SHT30;58476;48.072;11.970;2022-10-19T09:30:17;22.94;60.20
67064;SHT30;58476;48.072;11.970;2022-10-19T09:32:42;22.91;60.17
67064;SHT30;58476;48.072;11.970;2022-10-19T09:35:19;22.94;60.17
67064;SHT30;58476;48.072;11.970;2022-10-19T09:37:48;22.92;60.11
67064;SHT30;58476;48.072;11.970;2022-10-19T09:40:23;22.90;60.08
67064;SHT30;58476;48.072;11.970;2022-10-19T09:42:49;22.88;60.11
67064;SHT30;58476;48.072;11.970;2022-10-19T09:48:31;22.84;60.39
67064;SHT30;58476;48.072;11.970;2022-10-19T09:51:01;22.83;60.44
67064;SHT30;58476;48.072;11.970;2022-10-19T09:53:27;22.81;60.44
67064;SHT30;58476;48.072;11.970;2022-10-19T09:56:04;22.83;60.48
67064;SHT30;58476;48.072;11.970;2022-10-19T09:58:30;22.79;60.42
67064;SHT30;58476;48.072;11.970;2022-10-19T10:00:56;22.77;60.47
67064;SHT30;58476;48.072;11.970;2022-10-19T10:05:47;22.75;60.58
67064;SHT30;58476;48.072;11.970;2022-10-19T10:08:19;22.77;60.63
67064;SHT30;58476;48.072;11.970;2022-10-19T10:11:08;22.75;60.65
67064;SHT30;58476;48.072;11.970;2022-10-19T10:13:40;22.72;60.51
67064;SHT30;58476;48.072;11.970;2022-10-19T10:16:08;22.71;60.72
67064;SHT30;58476;48.072;11.970;2022-10-19T10:18:57;22.69;60.67
67064;SHT30;58476;48.072;11.970;2022-10-19T10:21:28;22.71;60.60
67064;SHT30;58476;48.072;11.970;2022-10-19T10:24:05;22.68;60.60
67064;SHT30;58476;48.072;11.970;2022-10-19T10:26:37;22.68;60.75
67064;SHT30;58476;48.072;11.970;2022-10-19T10:29:37;22.69;60.64
67064;SHT30;58476;48.072;11.970;2022-10-19T10:32:04;22.67;60.66
67064;SHT30;58476;48.072;11.970;2022-10-19T10:34:42;22.67;60.64
67064;SHT30;58476;48.072;11.970;2022-10-19T10:37:42;22.65;60.76
67064;SHT30;58476;48.072;11.970;2022-10-19T10:40:27;22.64;60.70
67064;SHT30;58476;48.072;11.970;2022-10-19T10:42:56;22.63;60.74
67064;SHT30;58476;48.072;11.970;2022-10-19T10:45:25;22.64;60.71
67064;SHT30;58476;48.072;11.970;2022-10-19T10:47:53;22.63;60.82
67064;SHT30;58476;48.072;11.970;2022-10-19T10:50:24;22.61;60.86
67064;SHT30;58476;48.072;11.970;2022-10-19T10:52:57;22.61;60.57
67064;SHT30;58476;48.072;11.970;2022-10-19T10:55:22;22.60;60.49
67064;SHT30;58476;48.072;11.970;2022-10-19T10:57:51;22.61;60.49
67064;SHT30;58476;48.072;11.970;2022-10-19T11:00:20;22.65;60.62
67064;SHT30;58476;48.072;11.970;2022-10-19T11:05:40;22.69;60.44
67064;SHT30;58476;48.072;11.970;2022-10-19T11:08:26;22.71;60.38
67064;SHT30;58476;48.072;11.970;2022-10-19T11:11:00;22.72;60.33
67064;SHT30;58476;48.072;11.970;2022-10-19T11:16:07;22.78;60.14
67064;SHT30;58476;48.072;11.970;2022-10-19T11:32:48;22.81;60.14
67064;SHT30;58476;48.072;11.970;2022-10-19T11:35:38;22.84;60.09
67064;SHT30;58476;48.072;11.970;2022-10-19T11:38:26;22.84;60.16
67064;SHT30;58476;48.072;11.970;2022-10-19T11:41:46;22.83;59.85
67064;SHT30;58476;48.072;11.970;2022-10-19T11:46:50;22.81;59.98
67064;SHT30;58476;48.072;11.970;2022-10-19T12:00:50;22.74;60.37
67064;SHT30;58476;48.072;11.970;2022-10-19T12:03:30;22.72;60.32
67064;SHT30;58476;48.072;11.970;2022-10-19T12:11:26;22.71;60.47
67064;SHT30;58476;48.072;11.970;2022-10-19T12:14:02;22.68;60.55
67064;SHT30;58476;48.072;11.970;2022-10-19T12:16:39;22.68;60.62
67064;SHT30;58476;48.072;11.970;2022-10-19T12:22:06;22.68;60.53
67064;SHT30;58476;48.072;11.970;2022-10-19T12:24:35;22.68;60.89
67064;SHT30;58476;48.072;11.970;2022-10-19T12:27:00;22.72;61.65
67064;SHT30;58476;48.072;11.970;2022-10-19T12:29:34;22.75;62.21
67064;SHT30;58476;48.072;11.970;2022-10-19T12:32:02;22.79;61.97
67064;SHT30;58476;48.072;11.970;2022-10-19T12:37:27;22.87;61.94
67064;SHT30;58476;48.072;11.970;2022-10-19T12:40:15;22.90;61.90
67064;SHT30;58476;48.072;11.970;2022-10-19T12:45:45;22.94;61.67
67064;SHT30;58476;48.072;11.970;2022-10-19T12:56:02;23.14;61.32
67064;SHT30;58476;48.072;11.970;2022-10-19T13:01:06;23.15;61.23
67064;SHT30;58476;48.072;11.970;2022-10-19T13:03:35;23.19;61.14
67064;SHT30;58476;48.072;11.970;2022-10-19T13:06:10;23.25;60.98
67064;SHT30;58476;48.072;11.970;2022-10-19T13:08:44;23.27;60.99
67064;SHT30;58476;48.072;11.970;2022-10-19T13:11:12;23.32;60.89
67064;SHT30;58476;48.072;11.970;2022-10-19T13:21:52;23.45;60.48
67064;SHT30;58476;48.072;11.970;2022-10-19T13:24:38;23.52;60.31
67064;SHT30;58476;48.072;11.970;2022-10-19T13:29:40;23.64;60.38
67064;SHT30;58476;48.072;11.970;2022-10-19T13:32:36;23.69;60.32
67064;SHT30;58476;48.072;11.970;2022-10-19T13:38:19;23.70;60.15
67064;SHT30;58476;48.072;11.970;2022-10-19T13:43:23;23.73;60.09
67064;SHT30;58476;48.072;11.970;2022-10-19T13:46:16;23.77;60.29
67064;SHT30;58476;48.072;11.970;2022-10-19T13:49:19;23.80;60.23
67064;SHT30;58476;48.072;11.970;2022-10-19T13:52:17;23.76;60.17
67064;SHT30;58476;48.072;11.970;2022-10-19T14:00:36;23.67;60.31
67064;SHT30;58476;48.072;11.970;2022-10-19T14:13:29;23.64;60.37
67064;SHT30;58476;48.072;11.970;2022-10-19T14:15:57;23.64;60.41
67064;SHT30;58476;48.072;11.970;2022-10-19T14:21:10;23.59;60.63
67064;SHT30;58476;48.072;11.970;2022-10-19T14:23:37;23.59;60.58
67064;SHT30;58476;48.072;11.970;2022-10-19T14:26:09;23.64;60.59
67064;SHT30;58476;48.072;11.970;2022-10-19T14:28:36;23.64;60.62
67064;SHT30;58476;48.072;11.970;2022-10-19T14:31:17;23.71;60.32
67064;SHT30;58476;48.072;11.970;2022-10-19T14:33:49;23.76;60.44
67064;SHT30;58476;48.072;11.970;2022-10-19T14:36:19;23.78;60.60
67064;SHT30;58476;48.072;11.970;2022-10-19T14:38:46;23.83;60.79
67064;SHT30;58476;48.072;11.970;2022-10-19T14:41:28;23.88;60.95
67064;SHT30;58476;48.072;11.970;2022-10-19T14:43:55;23.94;61.26
67064;SHT30;58476;48.072;11.970;2022-10-19T14:46:23;23.98;61.60
67064;SHT30;58476;48.072;11.970;2022-10-19T14:48:50;23.96;60.20
67064;SHT30;58476;48.072;11.970;2022-10-19T14:51:31;23.94;60.09
67064;SHT30;58476;48.072;11.970;2022-10-19T14:56:53;23.94;59.05
67064;SHT30;58476;48.072;11.970;2022-10-19T15:04:43;23.88;59.52
67064;SHT30;58476;48.072;11.970;2022-10-19T15:07:23;23.87;59.67
67064;SHT30;58476;48.072;11.970;2022-10-19T15:09:54;23.81;59.83
67064;SHT30;58476;48.072;11.970;2022-10-19T15:12:26;23.81;59.84
67064;SHT30;58476;48.072;11.970;2022-10-19T15:14:53;23.76;59.70
67064;SHT30;58476;48.072;11.970;2022-10-19T15:17:25;23.74;59.59
67064;SHT30;58476;48.072;11.970;2022-10-19T15:19:52;23.71;59.63
67064;SHT30;58476;48.072;11.970;2022-10-19T15:22:20;23.69;59.67
67064;SHT30;58476;48.072;11.970;2022-10-19T15:24:59;23.67;59.81
67064;SHT30;58476;48.072;11.970;2022-10-19T15:30:03;23.62;60.07
67064;SHT30;58476;48.072;11.970;2022-10-19T15:32:34;23.57;60.11
67064;SHT30;58476;48.072;11.970;2022-10-19T15:37:46;23.55;60.10
67064;SHT30;58476;48.072;11.970;2022-10-19T15:40:19;23.55;60.08
67064;SHT30;58476;48.072;11.970;2022-10-19T15:42:46;23.50;59.99
67064;SHT30;58476;48.072;11.970;2022-10-19T15:50:44;23.43;60.20
67064;SHT30;58476;48.072;11.970;2022-10-19T15:53:11;23.42;60.29
67064;SHT30;58476;48.072;11.970;2022-10-19T15:55:38;23.39;60.27
67064;SHT30;58476;48.072;11.970;2022-10-19T15:58:04;23.36;59.64
67064;SHT30;58476;48.072;11.970;2022-10-19T16:00:29;23.35;58.94
67064;SHT30;58476;48.072;11.970;2022-10-19T16:02:55;23.29;57.77
67064;SHT30;58476;48.072;11.970;2022-10-19T16:05:20;23.26;57.63
67064;SHT30;58476;48.072;11.970;2022-10-19T16:07:46;23.27;58.32
67064;SHT30;58476;48.072;11.970;2022-10-19T16:10:20;23.29;57.80
67064;SHT30;58476;48.072;11.970;2022-10-19T16:12:46;23.30;58.03
67064;SHT30;58476;48.072;11.970;2022-10-19T16:15:13;23.35;58.56
67064;SHT30;58476;48.072;11.970;2022-10-19T16:17:38;23.38;58.72
67064;SHT30;58476;48.072;11.970;2022-10-19T16:20:05;23.41;58.54
67064;SHT30;58476;48.072;11.970;2022-10-19T16:22:31;23.42;58.33
67064;SHT30;58476;48.072;11.970;2022-10-19T16:24:56;23.47;58.53
67064;SHT30;58476;48.072;11.970;2022-10-19T16:27:22;23.49;58.42
67064;SHT30;58476;48.072;11.970;2022-10-19T16:29:47;23.49;58.52
67064;SHT30;58476;48.072;11.970;2022-10-19T16:32:13;23.50;58.49
67064;SHT30;58476;48.072;11.970;2022-10-19T16:34:38;23.55;58.48
67064;SHT30;58476;48.072;11.970;2022-10-19T16:37:03;23.56;58.44
67064;SHT30;58476;48.072;11.970;2022-10-19T16:39:29;23.57;58.66
67064;SHT30;58476;48.072;11.970;2022-10-19T16:41:54;23.62;58.77
67064;SHT30;58476;48.072;11.970;2022-10-19T16:44:20;23.59;58.64
67064;SHT30;58476;48.072;11.970;2022-10-19T16:46:45;23.56;58.45
67064;SHT30;58476;48.072;11.970;2022-10-19T16:49:10;23.55;58.17
67064;SHT30;58476;48.072;11.970;2022-10-19T16:51:37;23.53;58.11
67064;SHT30;58476;48.072;11.970;2022-10-19T16:54:05;23.52;58.50
67064;SHT30;58476;48.072;11.970;2022-10-19T16:56:31;23.53;58.27
67064;SHT30;58476;48.072;11.970;2022-10-19T16:58:59;23.50;58.70
67064;SHT30;58476;48.072;11.970;2022-10-19T17:01:26;23.52;58.76
67064;SHT30;58476;48.072;11.970;2022-10-19T17:03:52;23.50;58.70
67064;SHT30;58476;48.072;11.970;2022-10-19T17:06:17;23.47;58.92
67064;SHT30;58476;48.072;11.970;2022-10-19T17:08:43;23.43;58.95
67064;SHT30;58476;48.072;11.970;2022-10-19T17:11:19;23.43;58.96
67064;SHT30;58476;48.072;11.970;2022-10-19T17:13:47;23.42;58.86
67064;SHT30;58476;48.072;11.970;2022-10-19T17:16:14;23.41;58.93
67064;SHT30;58476;48.072;11.970;2022-10-19T17:18:40;23.38;59.16
67064;SHT30;58476;48.072;11.970;2022-10-19T17:21:11;23.36;59.19
67064;SHT30;58476;48.072;11.970;2022-10-19T17:23:37;23.38;58.71
67064;SHT30;58476;48.072;11.970;2022-10-19T17:26:03;23.33;58.69
67064;SHT30;58476;48.072;11.970;2022-10-19T17:28:29;23.36;58.54
67064;SHT30;58476;48.072;11.970;2022-10-19T17:30:55;23.33;58.55
67064;SHT30;58476;48.072;11.970;2022-10-19T17:33:20;23.33;58.63
67064;SHT30;58476;48.072;11.970;2022-10-19T17:35:46;23.33;58.46
67064;SHT30;58476;48.072;11.970;2022-10-19T17:38:12;23.33;58.32
67064;SHT30;58476;48.072;11.970;2022-10-19T17:40:37;23.27;57.92
67064;SHT30;58476;48.072;11.970;2022-10-19T17:43:02;23.32;57.84
67064;SHT30;58476;48.072;11.970;2022-10-19T17:45:28;23.35;57.83
67064;SHT30;58476;48.072;11.970;2022-10-19T17:47:54;23.35;58.20
67064;SHT30;58476;48.072;11.970;2022-10-19T17:50:20;23.39;57.89